Terminal Aerodrome Forecast
Issued by NWS St Louis, MO

Home | Current Version | Previous Version | Text Only | Print | Product List | Glossary On
Versions: 1 2 3 4 5 6 7 8 9 10 11 12 13 14 15 16 17 18 19 20 21 22 23 24 25 26 27 28 29 30
000
FTUS43 KLSX 050304 AAA
TAFSTL
TAF AMD
KSTL 050304Z 0503/0606 29008KT P6SM OVC015
     FM050400 28005KT P6SM SCT250
     FM050900 00000KT 3SM BR SCT008
     FM051500 15005KT P6SM SCT250
     FM060200 11005KT P6SM OVC110=

USA.gov is the U.S. government's official web portal to all federal, state and local government web resources and services.